sensor_id;sensor_type;location;lat;lon;timestamp;pressure;altitude;pressure_sealevel;temperature;humidity
36598;BME280;22607;49.550;11.940;2023-06-22T00:01:13;97090.72;;;19.09;100.00
36598;BME280;22607;49.550;11.940;2023-06-22T00:03:40;97094.22;;;19.10;100.00
36598;BME280;22607;49.550;11.940;2023-06-22T00:06:07;97092.09;;;18.93;100.00
36598;BME280;22607;49.550;11.940;2023-06-22T00:08:34;97087.41;;;18.88;100.00
36598;BME280;22607;49.550;11.940;2023-06-22T00:11:00;97084.78;;;19.07;100.00
36598;BME280;22607;49.550;11.940;2023-06-22T00:13:27;97075.19;;;19.06;100.00
36598;BME280;22607;49.550;11.940;2023-06-22T00:15:53;97086.25;;;19.03;100.00
36598;BME280;22607;49.550;11.940;2023-06-22T00:18:20;97090.19;;;19.00;100.00
36598;BME280;22607;49.550;11.940;2023-06-22T00:20:47;97100.56;;;19.09;100.00
36598;BME280;22607;49.550;11.940;2023-06-22T00:23:13;97091.88;;;18.95;100.00
36598;BME280;22607;49.550;11.940;2023-06-22T00:25:42;97082.03;;;18.95;100.00
36598;BME280;22607;49.550;11.940;2023-06-22T00:28:09;97074.66;;;18.97;100.00
36598;BME280;22607;49.550;11.940;2023-06-22T00:30:35;97068.78;;;18.88;100.00
36598;BME280;22607;49.550;11.940;2023-06-22T00:33:02;97071.28;;;18.83;100.00
36598;BME280;22607;49.550;11.940;2023-06-22T00:35:29;97064.19;;;18.77;100.00
36598;BME280;22607;49.550;11.940;2023-06-22T00:37:57;97071.00;;;18.92;100.00
36598;BME280;22607;49.550;11.940;2023-06-22T00:40:28;97070.78;;;18.93;100.00
36598;BME280;22607;49.550;11.940;2023-06-22T00:42:56;97072.88;;;18.91;100.00
36598;BME280;22607;49.550;11.940;2023-06-22T00:45:23;97077.16;;;18.92;100.00
36598;BME280;22607;49.550;11.940;2023-06-22T00:47:56;97078.34;;;18.96;100.00
36598;BME280;22607;49.550;11.940;2023-06-22T00:50:26;97066.13;;;18.88;100.00
36598;BME280;22607;49.550;11.940;2023-06-22T00:52:56;97064.06;;;18.91;100.00
36598;BME280;22607;49.550;11.940;2023-06-22T00:55:23;97068.06;;;19.00;100.00
36598;BME280;22607;49.550;11.940;2023-06-22T00:57:50;97069.09;;;18.99;100.00
36598;BME280;22607;49.550;11.940;2023-06-22T01:00:17;97064.56;;;18.99;100.00
36598;BME280;22607;49.550;11.940;2023-06-22T01:02:46;97072.34;;;19.01;100.00
36598;BME280;22607;49.550;11.940;2023-06-22T01:05:17;97071.91;;;18.85;100.00
36598;BME280;22607;49.550;11.940;2023-06-22T01:12:55;97078.50;;;19.01;100.00
36598;BME280;22607;49.550;11.940;2023-06-22T01:17:49;97078.84;;;18.86;100.00
36598;BME280;22607;49.550;11.940;2023-06-22T01:20:20;97073.09;;;18.89;100.00
36598;BME280;22607;49.550;11.940;2023-06-22T01:25:36;97092.81;;;18.82;100.00
36598;BME280;22607;49.550;11.940;2023-06-22T01:31:05;97080.88;;;18.66;100.00
36598;BME280;22607;49.550;11.940;2023-06-22T01:33:36;97084.91;;;18.75;100.00
36598;BME280;22607;49.550;11.940;2023-06-22T01:36:04;97075.41;;;18.79;100.00
36598;BME280;22607;49.550;11.940;2023-06-22T01:38:32;97085.47;;;18.77;100.00
36598;BME280;22607;49.550;11.940;2023-06-22T01:41:00;97078.97;;;18.73;100.00
36598;BME280;22607;49.550;11.940;2023-06-22T01:43:28;97078.47;;;18.83;100.00
36598;BME280;22607;49.550;11.940;2023-06-22T01:45:57;97082.88;;;18.70;100.00
36598;BME280;22607;49.550;11.940;2023-06-22T01:48:24;97072.09;;;18.65;100.00
36598;BME280;22607;49.550;11.940;2023-06-22T01:50:53;97078.53;;;18.76;100.00
36598;BME280;22607;49.550;11.940;2023-06-22T01:53:24;97079.22;;;18.65;100.00
36598;BME280;22607;49.550;11.940;2023-06-22T01:55:51;97090.03;;;18.70;100.00
36598;BME280;22607;49.550;11.940;2023-06-22T01:58:26;97078.44;;;18.39;100.00
36598;BME280;22607;49.550;11.940;2023-06-22T02:00:59;97064.88;;;18.47;100.00
36598;BME280;22607;49.550;11.940;2023-06-22T02:03:34;97065.34;;;18.62;100.00
36598;BME280;22607;49.550;11.940;2023-06-22T02:06:13;97064.00;;;18.53;100.00
36598;BME280;22607;49.550;11.940;2023-06-22T02:08:47;97060.56;;;18.46;100.00
36598;BME280;22607;49.550;11.940;2023-06-22T02:11:16;97048.25;;;18.26;100.00
36598;BME280;22607;49.550;11.940;2023-06-22T02:13:45;97053.03;;;18.17;100.00
36598;BME280;22607;49.550;11.940;2023-06-22T02:16:13;97049.97;;;18.14;100.00
36598;BME280;22607;49.550;11.940;2023-06-22T02:18:49;97063.50;;;18.12;100.00
36598;BME280;22607;49.550;11.940;2023-06-22T02:21:19;97070.81;;;18.17;100.00
36598;BME280;22607;49.550;11.940;2023-06-22T02:23:46;97057.16;;;18.13;100.00
36598;BME280;22607;49.550;11.940;2023-06-22T02:26:15;97050.22;;;18.05;100.00
36598;BME280;22607;49.550;11.940;2023-06-22T02:28:42;97042.09;;;18.00;100.00
36598;BME280;22607;49.550;11.940;2023-06-22T02:31:09;97056.16;;;18.07;100.00
36598;BME280;22607;49.550;11.940;2023-06-22T02:33:35;97046.34;;;18.08;100.00
36598;BME280;22607;49.550;11.940;2023-06-22T02:36:02;97049.38;;;18.12;100.00
36598;BME280;22607;49.550;11.940;2023-06-22T02:38:35;97035.13;;;17.99;100.00
36598;BME280;22607;49.550;11.940;2023-06-22T02:41:03;97045.91;;;18.11;100.00
36598;BME280;22607;49.550;11.940;2023-06-22T02:43:29;97043.50;;;18.09;100.00
36598;BME280;22607;49.550;11.940;2023-06-22T02:45:56;97049.19;;;18.06;100.00
36598;BME280;22607;49.550;11.940;2023-06-22T02:48:23;97048.38;;;18.06;100.00
36598;BME280;22607;49.550;11.940;2023-06-22T02:50:49;97049.19;;;18.06;100.00
36598;BME280;22607;49.550;11.940;2023-06-22T02:53:16;97055.28;;;18.14;100.00
36598;BME280;22607;49.550;11.940;2023-06-22T02:55:42;97042.00;;;18.14;100.00
36598;BME280;22607;49.550;11.940;2023-06-22T02:58:09;97052.44;;;18.15;100.00
36598;BME280;22607;49.550;11.940;2023-06-22T03:00:35;97053.50;;;18.01;100.00
36598;BME280;22607;49.550;11.940;2023-06-22T03:03:02;97048.38;;;18.06;100.00
36598;BME280;22607;49.550;11.940;2023-06-22T03:05:28;97065.53;;;18.10;100.00
36598;BME280;22607;49.550;11.940;2023-06-22T03:07:55;97067.63;;;18.01;100.00
36598;BME280;22607;49.550;11.940;2023-06-22T03:10:22;97066.75;;;18.14;100.00
36598;BME280;22607;49.550;11.940;2023-06-22T03:12:48;97051.75;;;17.88;100.00
36598;BME280;22607;49.550;11.940;2023-06-22T03:15:15;97067.19;;;18.04;100.00
36598;BME280;22607;49.550;11.940;2023-06-22T03:17:43;97063.72;;;18.10;100.00
36598;BME280;22607;49.550;11.940;2023-06-22T03:20:10;97052.94;;;17.98;100.00
36598;BME280;22607;49.550;11.940;2023-06-22T03:22:40;97055.28;;;18.14;100.00
36598;BME280;22607;49.550;11.940;2023-06-22T03:25:10;97054.50;;;18.13;100.00
36598;BME280;22607;49.550;11.940;2023-06-22T03:27:37;97061.63;;;18.13;100.00
36598;BME280;22607;49.550;11.940;2023-06-22T03:30:05;97076.19;;;18.03;100.00
36598;BME280;22607;49.550;11.940;2023-06-22T03:32:32;97089.84;;;18.14;100.00
36598;BME280;22607;49.550;11.940;2023-06-22T03:34:58;97102.75;;;18.03;100.00
36598;BME280;22607;49.550;11.940;2023-06-22T03:37:26;97139.59;;;18.00;100.00
36598;BME280;22607;49.550;11.940;2023-06-22T03:39:52;97140.81;;;17.97;100.00
36598;BME280;22607;49.550;11.940;2023-06-22T03:42:20;97134.09;;;17.94;100.00
36598;BME280;22607;49.550;11.940;2023-06-22T03:44:47;97146.31;;;18.09;100.00
36598;BME280;22607;49.550;11.940;2023-06-22T03:47:14;97150.97;;;18.14;100.00
36598;BME280;22607;49.550;11.940;2023-06-22T03:49:40;97151.38;;;18.17;100.00
36598;BME280;22607;49.550;11.940;2023-06-22T03:52:07;97157.94;;;18.15;100.00
36598;BME280;22607;49.550;11.940;2023-06-22T03:54:34;97154.59;;;18.26;100.00
36598;BME280;22607;49.550;11.940;2023-06-22T03:57:00;97147.81;;;18.30;100.00
36598;BME280;22607;49.550;11.940;2023-06-22T03:59:27;97143.28;;;18.38;100.00
36598;BME280;22607;49.550;11.940;2023-06-22T04:01:53;97125.97;;;18.28;100.00
36598;BME280;22607;49.550;11.940;2023-06-22T04:04:20;97121.06;;;18.25;100.00
36598;BME280;22607;49.550;11.940;2023-06-22T04:06:47;97130.84;;;18.31;100.00
36598;BME280;22607;49.550;11.940;2023-06-22T04:09:14;97121.44;;;18.29;100.00
36598;BME280;22607;49.550;11.940;2023-06-22T04:11:40;97123.38;;;18.47;100.00
36598;BME280;22607;49.550;11.940;2023-06-22T04:14:07;97121.53;;;18.47;100.00
36598;BME280;22607;49.550;11.940;2023-06-22T04:16:33;97120.38;;;18.62;100.00
36598;BME280;22607;49.550;11.940;2023-06-22T04:19:00;97108.00;;;18.74;100.00
36598;BME280;22607;49.550;11.940;2023-06-22T04:21:26;97108.84;;;18.75;100.00
36598;BME280;22607;49.550;11.940;2023-06-22T04:23:53;97114.53;;;18.79;100.00
36598;BME280;22607;49.550;11.940;2023-06-22T04:26:20;97100.63;;;18.76;100.00
36598;BME280;22607;49.550;11.940;2023-06-22T04:28:47;97107.53;;;18.84;100.00
36598;BME280;22607;49.550;11.940;2023-06-22T04:31:19;97108.53;;;18.83;100.00
36598;BME280;22607;49.550;11.940;2023-06-22T04:33:45;97104.56;;;18.93;100.00
36598;BME280;22607;49.550;11.940;2023-06-22T04:36:12;97093.06;;;18.99;100.00
36598;BME280;22607;49.550;11.940;2023-06-22T04:38:40;97101.63;;;19.01;100.00
36598;BME280;22607;49.550;11.940;2023-06-22T04:41:06;97094.56;;;19.13;100.00
36598;BME280;22607;49.550;11.940;2023-06-22T04:43:34;97089.97;;;19.21;100.00
36598;BME280;22607;49.550;11.940;2023-06-22T04:46:01;97101.94;;;19.11;100.00
36598;BME280;22607;49.550;11.940;2023-06-22T04:48:30;97081.69;;;19.29;100.00
36598;BME280;22607;49.550;11.940;2023-06-22T04:51:01;97072.78;;;19.54;100.00
36598;BME280;22607;49.550;11.940;2023-06-22T04:53:31;97086.09;;;19.73;100.00
36598;BME280;22607;49.550;11.940;2023-06-22T04:55:57;97093.44;;;20.08;100.00
36598;BME280;22607;49.550;11.940;2023-06-22T04:58:24;97072.28;;;20.37;100.00
36598;BME280;22607;49.550;11.940;2023-06-22T05:01:02;97049.13;;;20.62;100.00
36598;BME280;22607;49.550;11.940;2023-06-22T05:03:44;97060.13;;;21.01;100.00
36598;BME280;22607;49.550;11.940;2023-06-22T05:06:11;97079.09;;;21.53;100.00
36598;BME280;22607;49.550;11.940;2023-06-22T05:08:37;97047.06;;;21.82;100.00
36598;BME280;22607;49.550;11.940;2023-06-22T05:11:04;97014.91;;;21.94;100.00
36598;BME280;22607;49.550;11.940;2023-06-22T05:13:32;97020.53;;;22.09;100.00
36598;BME280;22607;49.550;11.940;2023-06-22T05:15:58;97043.63;;;22.33;100.00
36598;BME280;22607;49.550;11.940;2023-06-22T05:18:32;97058.88;;;22.49;100.00
36598;BME280;22607;49.550;11.940;2023-06-22T05:21:00;97036.72;;;22.88;100.00
36598;BME280;22607;49.550;11.940;2023-06-22T05:23:27;97009.38;;;22.86;100.00
36598;BME280;22607;49.550;11.940;2023-06-22T05:25:53;97015.13;;;22.95;100.00
36598;BME280;22607;49.550;11.940;2023-06-22T05:28:23;97030.13;;;23.41;100.00
36598;BME280;22607;49.550;11.940;2023-06-22T05:30:51;97047.63;;;23.71;100.00
36598;BME280;22607;49.550;11.940;2023-06-22T05:33:18;97025.91;;;24.00;100.00
36598;BME280;22607;49.550;11.940;2023-06-22T05:35:44;97015.88;;;23.90;100.00
36598;BME280;22607;49.550;11.940;2023-06-22T05:38:11;96991.94;;;23.51;100.00
36598;BME280;22607;49.550;11.940;2023-06-22T05:40:37;97015.47;;;23.26;100.00
36598;BME280;22607;49.550;11.940;2023-06-22T05:43:04;97036.25;;;23.14;100.00
36598;BME280;22607;49.550;11.940;2023-06-22T05:45:31;97041.72;;;23.24;100.00
36598;BME280;22607;49.550;11.940;2023-06-22T05:47:58;97018.63;;;23.68;100.00
36598;BME280;22607;49.550;11.940;2023-06-22T05:50:25;97007.00;;;23.84;100.00
36598;BME280;22607;49.550;11.940;2023-06-22T05:52:51;97010.50;;;24.12;100.00
36598;BME280;22607;49.550;11.940;2023-06-22T05:55:18;97018.69;;;24.71;100.00
36598;BME280;22607;49.550;11.940;2023-06-22T05:57:45;97030.72;;;24.63;100.00
36598;BME280;22607;49.550;11.940;2023-06-22T06:00:12;97032.03;;;25.09;100.00
36598;BME280;22607;49.550;11.940;2023-06-22T06:02:40;97008.63;;;25.63;88.48
36598;BME280;22607;49.550;11.940;2023-06-22T06:05:11;96998.94;;;25.78;86.94
36598;BME280;22607;49.550;11.940;2023-06-22T06:07:41;97001.66;;;25.99;86.99
36598;BME280;22607;49.550;11.940;2023-06-22T06:10:33;97003.53;;;26.08;79.22
36598;BME280;22607;49.550;11.940;2023-06-22T06:13:00;97001.13;;;25.97;82.02
36598;BME280;22607;49.550;11.940;2023-06-22T06:15:29;97005.19;;;26.25;81.38
36598;BME280;22607;49.550;11.940;2023-06-22T06:17:55;96994.16;;;26.27;83.04
36598;BME280;22607;49.550;11.940;2023-06-22T06:20:23;96991.41;;;26.53;79.32
36598;BME280;22607;49.550;11.940;2023-06-22T06:22:50;97001.03;;;26.85;74.39
36598;BME280;22607;49.550;11.940;2023-06-22T06:25:18;96991.88;;;26.81;74.60
36598;BME280;22607;49.550;11.940;2023-06-22T06:27:47;97001.91;;;26.54;77.26
36598;BME280;22607;49.550;11.940;2023-06-22T06:30:15;96997.81;;;26.78;76.76
36598;BME280;22607;49.550;11.940;2023-06-22T06:32:42;96991.69;;;27.33;73.61
36598;BME280;22607;49.550;11.940;2023-06-22T06:35:10;96985.38;;;26.87;73.57
36598;BME280;22607;49.550;11.940;2023-06-22T06:37:42;96988.66;;;26.94;73.12
36598;BME280;22607;49.550;11.940;2023-06-22T06:40:10;96976.72;;;27.11;74.27
36598;BME280;22607;49.550;11.940;2023-06-22T06:42:42;96984.53;;;27.68;73.97
36598;BME280;22607;49.550;11.940;2023-06-22T06:45:21;96980.00;;;27.93;68.33
36598;BME280;22607;49.550;11.940;2023-06-22T06:47:50;96962.34;;;28.06;66.81
36598;BME280;22607;49.550;11.940;2023-06-22T06:50:17;96978.22;;;28.13;67.67
36598;BME280;22607;49.550;11.940;2023-06-22T06:52:49;96970.03;;;28.28;65.55
36598;BME280;22607;49.550;11.940;2023-06-22T06:55:17;96980.50;;;28.00;65.65
36598;BME280;22607;49.550;11.940;2023-06-22T06:57:44;96979.94;;;28.03;64.91
36598;BME280;22607;49.550;11.940;2023-06-22T07:00:15;96971.81;;;28.38;63.99
36598;BME280;22607;49.550;11.940;2023-06-22T07:02:43;96972.75;;;27.48;66.22
36598;BME280;22607;49.550;11.940;2023-06-22T07:05:12;96965.47;;;27.89;66.05
36598;BME280;22607;49.550;11.940;2023-06-22T07:07:39;96957.97;;;28.45;63.78
36598;BME280;22607;49.550;11.940;2023-06-22T07:10:06;96964.31;;;28.60;62.40
36598;BME280;22607;49.550;11.940;2023-06-22T07:12:33;96957.31;;;28.83;62.49
36598;BME280;22607;49.550;11.940;2023-06-22T07:15:05;96971.63;;;28.83;60.58
36598;BME280;22607;49.550;11.940;2023-06-22T07:17:32;96948.97;;;28.79;60.71
36598;BME280;22607;49.550;11.940;2023-06-22T07:19:59;96947.78;;;28.91;60.80
36598;BME280;22607;49.550;11.940;2023-06-22T07:22:25;96946.03;;;28.27;61.82
36598;BME280;22607;49.550;11.940;2023-06-22T07:24:52;96954.91;;;29.06;61.00
36598;BME280;22607;49.550;11.940;2023-06-22T07:27:18;96954.31;;;28.85;60.16
36598;BME280;22607;49.550;11.940;2023-06-22T07:29:46;96950.78;;;29.52;58.24
36598;BME280;22607;49.550;11.940;2023-06-22T07:32:13;96947.06;;;29.81;57.84
36598;BME280;22607;49.550;11.940;2023-06-22T07:34:39;96950.91;;;30.13;57.51
36598;BME280;22607;49.550;11.940;2023-06-22T07:37:06;96938.56;;;29.88;55.66
36598;BME280;22607;49.550;11.940;2023-06-22T07:39:33;96938.47;;;30.12;56.44
36598;BME280;22607;49.550;11.940;2023-06-22T07:41:59;96936.78;;;30.17;54.54
36598;BME280;22607;49.550;11.940;2023-06-22T07:44:26;96933.78;;;30.18;54.84
36598;BME280;22607;49.550;11.940;2023-06-22T07:46:54;96932.66;;;29.53;56.46
36598;BME280;22607;49.550;11.940;2023-06-22T07:49:21;96924.88;;;29.65;56.44
36598;BME280;22607;49.550;11.940;2023-06-22T07:51:47;96925.16;;;30.30;55.96
36598;BME280;22607;49.550;11.940;2023-06-22T07:54:14;96927.56;;;30.46;54.18
36598;BME280;22607;49.550;11.940;2023-06-22T07:56:42;96924.88;;;30.46;54.64
36598;BME280;22607;49.550;11.940;2023-06-22T07:59:09;96924.47;;;30.67;52.06
36598;BME280;22607;49.550;11.940;2023-06-22T08:01:36;96919.16;;;30.61;52.60
36598;BME280;22607;49.550;11.940;2023-06-22T08:04:02;96914.34;;;30.72;53.30
36598;BME280;22607;49.550;11.940;2023-06-22T08:06:30;96908.53;;;30.79;51.74
36598;BME280;22607;49.550;11.940;2023-06-22T08:08:57;96908.94;;;30.72;51.50
36598;BME280;22607;49.550;11.940;2023-06-22T08:11:25;96905.91;;;30.88;52.53
36598;BME280;22607;49.550;11.940;2023-06-22T08:13:52;96905.22;;;30.96;50.96
36598;BME280;22607;49.550;11.940;2023-06-22T08:16:18;96910.13;;;30.94;51.71
36598;BME280;22607;49.550;11.940;2023-06-22T08:18:45;96912.94;;;31.40;50.79
36598;BME280;22607;49.550;11.940;2023-06-22T08:21:13;96903.41;;;31.65;51.31
36598;BME280;22607;49.550;11.940;2023-06-22T08:23:39;96910.28;;;31.49;48.69
36598;BME280;22607;49.550;11.940;2023-06-22T08:26:07;96902.63;;;31.28;48.87
36598;BME280;22607;49.550;11.940;2023-06-22T08:28:33;96898.34;;;31.50;49.50
36598;BME280;22607;49.550;11.940;2023-06-22T08:31:01;96900.44;;;31.16;51.19
36598;BME280;22607;49.550;11.940;2023-06-22T08:33:28;96890.88;;;31.55;48.94
36598;BME280;22607;49.550;11.940;2023-06-22T08:35:55;96910.84;;;31.37;50.12
36598;BME280;22607;49.550;11.940;2023-06-22T08:38:22;96904.88;;;31.72;47.93
36598;BME280;22607;49.550;11.940;2023-06-22T08:40:48;96907.47;;;31.31;47.61
36598;BME280;22607;49.550;11.940;2023-06-22T08:43:15;96903.22;;;31.25;47.86
36598;BME280;22607;49.550;11.940;2023-06-22T08:45:41;96901.97;;;31.45;47.56
36598;BME280;22607;49.550;11.940;2023-06-22T08:48:11;96898.69;;;31.80;50.14
36598;BME280;22607;49.550;11.940;2023-06-22T08:50:37;96899.44;;;31.72;46.30
36598;BME280;22607;49.550;11.940;2023-06-22T08:53:05;96902.31;;;31.75;46.60
36598;BME280;22607;49.550;11.940;2023-06-22T08:55:32;96902.16;;;31.49;46.63
36598;BME280;22607;49.550;11.940;2023-06-22T08:57:58;96899.31;;;31.54;46.90
36598;BME280;22607;49.550;11.940;2023-06-22T09:00:25;96897.47;;;31.63;44.80
36598;BME280;22607;49.550;11.940;2023-06-22T09:02:53;96884.97;;;31.53;46.33
36598;BME280;22607;49.550;11.940;2023-06-22T09:05:20;96891.94;;;31.68;47.09
36598;BME280;22607;49.550;11.940;2023-06-22T09:07:48;96887.63;;;32.31;47.33
36598;BME280;22607;49.550;11.940;2023-06-22T09:10:14;96888.06;;;32.15;44.18
36598;BME280;22607;49.550;11.940;2023-06-22T09:12:41;96886.66;;;32.27;44.86
36598;BME280;22607;49.550;11.940;2023-06-22T09:15:09;96881.41;;;31.99;45.99
36598;BME280;22607;49.550;11.940;2023-06-22T09:17:42;96885.41;;;31.92;45.19
36598;BME280;22607;49.550;11.940;2023-06-22T09:20:09;96886.56;;;32.41;42.44
36598;BME280;22607;49.550;11.940;2023-06-22T09:22:37;96877.81;;;32.12;43.08
36598;BME280;22607;49.550;11.940;2023-06-22T09:25:05;96874.22;;;32.84;42.78
36598;BME280;22607;49.550;11.940;2023-06-22T09:27:33;96869.28;;;32.86;41.05
36598;BME280;22607;49.550;11.940;2023-06-22T09:29:59;96865.75;;;32.77;41.35
36598;BME280;22607;49.550;11.940;2023-06-22T09:32:26;96857.09;;;32.92;41.25
36598;BME280;22607;49.550;11.940;2023-06-22T09:34:53;96869.31;;;33.21;40.70
36598;BME280;22607;49.550;11.940;2023-06-22T09:37:20;96856.19;;;33.32;40.72
36598;BME280;22607;49.550;11.940;2023-06-22T09:39:46;96864.41;;;32.65;40.43
36598;BME280;22607;49.550;11.940;2023-06-22T09:42:13;96867.03;;;32.88;40.73
36598;BME280;22607;49.550;11.940;2023-06-22T09:44:40;96863.84;;;32.86;40.87
36598;BME280;22607;49.550;11.940;2023-06-22T09:47:06;96863.81;;;32.95;39.09
36598;BME280;22607;49.550;11.940;2023-06-22T09:49:34;96859.72;;;33.06;40.24
36598;BME280;22607;49.550;11.940;2023-06-22T09:52:12;96864.47;;;32.83;39.58
36598;BME280;22607;49.550;11.940;2023-06-22T09:54:39;96861.94;;;33.13;40.36
36598;BME280;22607;49.550;11.940;2023-06-22T09:57:06;96857.63;;;33.21;39.99
36598;BME280;22607;49.550;11.940;2023-06-22T09:59:34;96858.59;;;33.16;40.97
36598;BME280;22607;49.550;11.940;2023-06-22T10:02:00;96839.56;;;33.07;39.42
36598;BME280;22607;49.550;11.940;2023-06-22T10:04:28;96842.56;;;33.59;39.79
36598;BME280;22607;49.550;11.940;2023-06-22T10:06:56;96842.09;;;33.57;38.18
36598;BME280;22607;49.550;11.940;2023-06-22T10:09:24;96843.34;;;33.68;39.94
36598;BME280;22607;49.550;11.940;2023-06-22T10:11:51;96821.31;;;33.08;37.99
36598;BME280;22607;49.550;11.940;2023-06-22T10:14:17;96829.78;;;33.15;38.88
36598;BME280;22607;49.550;11.940;2023-06-22T10:16:44;96832.34;;;33.20;39.28
36598;BME280;22607;49.550;11.940;2023-06-22T10:19:11;96827.81;;;33.51;38.32
36598;BME280;22607;49.550;11.940;2023-06-22T10:21:38;96831.38;;;33.34;37.79
36598;BME280;22607;49.550;11.940;2023-06-22T10:24:04;96813.88;;;33.52;39.29
36598;BME280;22607;49.550;11.940;2023-06-22T10:26:35;96813.47;;;33.98;38.66
36598;BME280;22607;49.550;11.940;2023-06-22T10:29:02;96817.13;;;34.11;36.47
36598;BME280;22607;49.550;11.940;2023-06-22T10:31:32;96802.91;;;34.27;37.51
36598;BME280;22607;49.550;11.940;2023-06-22T10:33:59;96816.19;;;33.89;37.12
36598;BME280;22607;49.550;11.940;2023-06-22T10:36:26;96803.78;;;34.19;37.76
36598;BME280;22607;49.550;11.940;2023-06-22T10:38:52;96808.88;;;34.20;35.89
36598;BME280;22607;49.550;11.940;2023-06-22T10:41:20;96792.31;;;33.95;36.08
36598;BME280;22607;49.550;11.940;2023-06-22T10:43:47;96792.97;;;33.92;37.19
36598;BME280;22607;49.550;11.940;2023-06-22T10:46:13;96781.44;;;33.95;36.64
36598;BME280;22607;49.550;11.940;2023-06-22T10:48:40;96777.47;;;33.84;35.83
36598;BME280;22607;49.550;11.940;2023-06-22T10:51:07;96787.66;;;33.57;35.90
36598;BME280;22607;49.550;11.940;2023-06-22T10:53:33;96778.19;;;34.02;35.74
36598;BME280;22607;49.550;11.940;2023-06-22T10:56:00;96779.09;;;34.15;36.41
36598;BME280;22607;49.550;11.940;2023-06-22T10:58:27;96770.97;;;33.49;36.04
36598;BME280;22607;49.550;11.940;2023-06-22T11:00:53;96768.31;;;33.88;35.47
36598;BME280;22607;49.550;11.940;2023-06-22T11:03:20;96761.03;;;33.71;36.27
36598;BME280;22607;49.550;11.940;2023-06-22T11:05:46;96759.44;;;34.00;35.87
36598;BME280;22607;49.550;11.940;2023-06-22T11:08:14;96750.38;;;34.26;35.92
36598;BME280;22607;49.550;11.940;2023-06-22T11:10:41;96747.66;;;34.26;35.80
36598;BME280;22607;49.550;11.940;2023-06-22T11:13:08;96739.69;;;34.42;34.57
36598;BME280;22607;49.550;11.940;2023-06-22T11:15:39;96753.34;;;34.64;35.03
36598;BME280;22607;49.550;11.940;2023-06-22T11:18:06;96751.66;;;34.50;34.45
36598;BME280;22607;49.550;11.940;2023-06-22T11:20:34;96752.69;;;34.15;34.55
36598;BME280;22607;49.550;11.940;2023-06-22T11:23:05;96746.78;;;34.35;34.72
36598;BME280;22607;49.550;11.940;2023-06-22T11:25:35;96739.28;;;34.53;34.96
36598;BME280;22607;49.550;11.940;2023-06-22T11:28:02;96736.78;;;34.69;34.42
36598;BME280;22607;49.550;11.940;2023-06-22T11:30:30;96733.56;;;34.67;33.03
36598;BME280;22607;49.550;11.940;2023-06-22T11:32:58;96736.75;;;34.26;34.08
36598;BME280;22607;49.550;11.940;2023-06-22T11:35:25;96737.47;;;34.36;33.83
36598;BME280;22607;49.550;11.940;2023-06-22T11:37:52;96735.94;;;34.47;32.95
36598;BME280;22607;49.550;11.940;2023-06-22T11:40:19;96726.19;;;34.46;33.00
36598;BME280;22607;49.550;11.940;2023-06-22T11:42:48;96732.50;;;34.80;32.45
36598;BME280;22607;49.550;11.940;2023-06-22T11:45:15;96731.13;;;34.74;32.75
36598;BME280;22607;49.550;11.940;2023-06-22T11:47:43;96738.16;;;34.75;33.49
36598;BME280;22607;49.550;11.940;2023-06-22T11:50:10;96736.22;;;34.97;33.81
36598;BME280;22607;49.550;11.940;2023-06-22T11:52:36;96724.88;;;35.07;32.34
36598;BME280;22607;49.550;11.940;2023-06-22T11:55:04;96736.44;;;34.92;33.40
36598;BME280;22607;49.550;11.940;2023-06-22T11:57:51;96736.00;;;35.02;34.01
36598;BME280;22607;49.550;11.940;2023-06-22T12:00:18;96723.72;;;35.08;34.29
36598;BME280;22607;49.550;11.940;2023-06-22T12:02:45;96716.91;;;35.02;32.99
36598;BME280;22607;49.550;11.940;2023-06-22T12:05:12;96727.41;;;35.13;32.38
36598;BME280;22607;49.550;11.940;2023-06-22T12:07:38;96732.66;;;35.18;33.35
36598;BME280;22607;49.550;11.940;2023-06-22T12:10:05;96721.00;;;35.08;31.58
36598;BME280;22607;49.550;11.940;2023-06-22T12:12:32;96725.00;;;35.11;32.51
36598;BME280;22607;49.550;11.940;2023-06-22T12:14:58;96711.91;;;35.26;33.97
36598;BME280;22607;49.550;11.940;2023-06-22T12:17:30;96708.53;;;35.54;31.87
36598;BME280;22607;49.550;11.940;2023-06-22T12:19:56;96708.63;;;35.57;33.54
36598;BME280;22607;49.550;11.940;2023-06-22T12:22:29;96697.94;;;35.52;33.29
36598;BME280;22607;49.550;11.940;2023-06-22T12:24:56;96693.63;;;35.89;31.88
36598;BME280;22607;49.550;11.940;2023-06-22T12:27:42;96686.31;;;35.55;31.94
36598;BME280;22607;49.550;11.940;2023-06-22T12:30:16;96691.31;;;35.28;31.83
36598;BME280;22607;49.550;11.940;2023-06-22T12:32:44;96688.97;;;35.05;32.04
36598;BME280;22607;49.550;11.940;2023-06-22T12:35:10;96690.50;;;35.28;33.88
36598;BME280;22607;49.550;11.940;2023-06-22T12:37:41;96678.25;;;35.46;33.11
36598;BME280;22607;49.550;11.940;2023-06-22T12:40:09;96670.28;;;35.41;32.25
36598;BME280;22607;49.550;11.940;2023-06-22T12:42:38;96670.50;;;35.48;32.52
36598;BME280;22607;49.550;11.940;2023-06-22T12:45:05;96658.09;;;35.51;32.70
36598;BME280;22607;49.550;11.940;2023-06-22T12:47:32;96667.66;;;35.45;32.38
36598;BME280;22607;49.550;11.940;2023-06-22T12:49:58;96662.78;;;35.38;32.21
36598;BME280;22607;49.550;11.940;2023-06-22T12:52:25;96650.38;;;35.41;32.60
36598;BME280;22607;49.550;11.940;2023-06-22T12:54:52;96639.69;;;35.35;32.83
36598;BME280;22607;49.550;11.940;2023-06-22T12:57:21;96645.94;;;35.24;33.72
36598;BME280;22607;49.550;11.940;2023-06-22T12:59:48;96637.19;;;35.43;32.90
36598;BME280;22607;49.550;11.940;2023-06-22T13:02:14;96637.63;;;35.32;31.69